createdAt,value
2016-04-12T00:00:12.845Z,8.28
2016-04-12T00:01:12.784Z,8.27
2016-04-12T00:02:12.740Z,8.16
2016-04-12T00:03:12.696Z,8.13
2016-04-12T00:04:12.636Z,8.15
2016-04-12T00:05:12.576Z,8.12
2016-04-12T00:06:12.547Z,8.09
2016-04-12T00:07:12.472Z,7.97
2016-04-12T00:08:12.449Z,8.12
2016-04-12T00:09:12.364Z,7.98
2016-04-12T00:10:12.304Z,8.05
2016-04-12T00:11:12.245Z,7.93
2016-04-12T00:12:12.200Z,7.83
2016-04-12T00:13:12.156Z,7.88
2016-04-12T00:14:12.081Z,8.05
2016-04-12T00:15:12.036Z,8.05
2016-04-12T00:16:11.992Z,8.19
2016-04-12T00:17:11.932Z,8.23
2016-04-12T00:18:11.888Z,8.09
2016-04-12T00:19:11.828Z,7.95
2016-04-12T00:20:11.768Z,8
2016-04-12T00:21:11.708Z,8
2016-04-12T00:22:11.679Z,8.06
2016-04-12T00:23:11.652Z,8.09
2016-04-12T00:24:11.404Z,8.15
2016-04-12T00:25:11.501Z,8.09
2016-04-12T00:26:11.471Z,8.08
2016-04-12T00:27:11.397Z,8.08
2016-04-12T00:28:11.351Z,8.15
2016-04-12T00:29:11.308Z,8.1
2016-04-12T00:30:11.233Z,8.01
2016-04-12T00:31:11.046Z,7.95
2016-04-12T00:32:10.979Z,7.91
2016-04-12T00:33:11.079Z,7.82
2016-04-12T00:34:11.035Z,7.91
2016-04-12T00:35:10.975Z,7.82
2016-04-12T00:36:10.931Z,7.83
2016-04-12T00:37:10.856Z,7.77
2016-04-12T00:38:10.812Z,7.75
2016-04-12T00:39:10.768Z,7.75
2016-04-12T00:40:10.708Z,7.63
2016-04-12T00:41:10.648Z,7.77
2016-04-12T00:42:10.588Z,7.82
2016-04-12T00:43:10.545Z,7.9
2016-04-12T00:44:10.500Z,7.9
2016-04-12T00:45:10.424Z,7.88
2016-04-12T00:46:10.381Z,8
2016-04-12T00:47:10.352Z,7.85
2016-04-12T00:48:10.276Z,7.88
2016-04-12T00:49:10.216Z,7.94
2016-04-12T00:50:10.173Z,7.83
2016-04-12T00:51:10.128Z,7.9
2016-04-12T00:52:10.069Z,7.82
2016-04-12T00:53:10.024Z,7.88
2016-04-12T00:54:09.949Z,7.75
2016-04-12T00:55:09.733Z,7.63
2016-04-12T00:56:09.861Z,7.58
2016-04-12T00:57:09.800Z,7.61
2016-04-12T00:58:09.740Z,7.69
2016-04-12T00:59:09.681Z,7.7
2016-04-12T01:00:09.652Z,7.63
2016-04-12T01:01:09.576Z,7.7
2016-04-12T01:02:09.533Z,7.76
2016-04-12T01:03:09.473Z,7.61
2016-04-12T01:04:09.429Z,7.45
2016-04-12T01:05:09.368Z,7.35
2016-04-12T01:06:09.293Z,7.45
2016-04-12T01:07:09.265Z,7.54
2016-04-12T01:08:09.221Z,7.56
2016-04-12T01:09:09.145Z,7.39
2016-04-12T01:10:09.117Z,7.36
2016-04-12T01:11:09.057Z,7.28
2016-04-12T01:12:08.982Z,7.43
2016-04-12T01:13:08.937Z,7.23
2016-04-12T01:14:08.877Z,7.13
2016-04-12T01:15:08.817Z,7.31
2016-04-12T01:16:08.773Z,7.15
2016-04-12T01:17:08.573Z,7.23
2016-04-12T01:18:08.669Z,7.31
2016-04-12T01:19:08.609Z,7.32
2016-04-12T01:20:08.550Z,7.29
2016-04-12T01:21:08.505Z,7.24
2016-04-12T01:22:08.446Z,7.24
2016-04-12T01:23:08.386Z,7.24
2016-04-12T01:24:08.342Z,7.15
2016-04-12T01:25:08.297Z,7.1
2016-04-12T01:26:08.238Z,7.11
2016-04-12T01:27:08.178Z,7.11
2016-04-12T01:28:08.118Z,7.33
2016-04-12T01:29:08.058Z,7.31
2016-04-12T01:30:07.999Z,7.36
2016-04-12T01:31:07.970Z,7.29
2016-04-12T01:32:07.894Z,7.2
2016-04-12T01:33:07.851Z,7.14
2016-04-12T01:34:07.806Z,7.14
2016-04-12T01:35:07.746Z,7.07
2016-04-12T01:36:07.687Z,7.05
2016-04-12T01:37:07.642Z,7.18
2016-04-12T01:38:07.598Z,7.15
2016-04-12T01:39:07.523Z,7.31
2016-04-12T01:40:07.478Z,7.4
2016-04-12T01:41:07.434Z,7.21
2016-04-12T01:42:07.359Z,7.1
2016-04-12T01:43:07.314Z,7.13
2016-04-12T01:44:07.240Z,7.13
2016-04-12T01:45:06.461Z,6.96
2016-04-12T01:46:07.136Z,7
2016-04-12T01:47:07.122Z,6.92
2016-04-12T01:48:07.047Z,6.85
2016-04-12T01:49:06.831Z,6.84
2016-04-12T01:50:06.927Z,6.95
2016-04-12T01:51:06.883Z,7.03
2016-04-12T01:52:06.823Z,7.15
2016-04-12T01:53:06.779Z,7
2016-04-12T01:54:06.719Z,6.85
2016-04-12T01:55:06.660Z,6.92
2016-04-12T01:56:06.616Z,6.92
2016-04-12T01:57:06.556Z,6.96
2016-04-12T01:58:06.480Z,6.97
2016-04-12T01:59:06.435Z,6.97
2016-04-12T02:00:06.392Z,6.95
2016-04-12T02:01:06.316Z,6.96
2016-04-12T02:02:06.319Z,6.93
2016-04-12T02:03:06.228Z,6.87
2016-04-12T02:04:06.152Z,6.96
2016-04-12T02:05:06.108Z,7.06
2016-04-12T02:06:06.048Z,6.99
2016-04-12T02:07:06.004Z,7.03
2016-04-12T02:08:05.960Z,7
2016-04-12T02:09:05.884Z,6.92
2016-04-12T02:10:05.840Z,6.88
2016-04-12T02:11:05.780Z,6.77
2016-04-12T02:12:05.736Z,6.77
2016-04-12T02:13:05.692Z,6.84
2016-04-12T02:14:05.617Z,6.79
2016-04-12T02:15:05.556Z,6.84
2016-04-12T02:16:05.528Z,6.84
2016-04-12T02:17:05.375Z,6.81
2016-04-12T02:18:05.393Z,6.82
2016-04-12T02:19:05.350Z,6.84
2016-04-12T02:20:05.305Z,6.85
2016-04-12T02:21:05.245Z,6.88
2016-04-12T02:22:05.170Z,6.88
2016-04-12T02:23:05.125Z,6.84
2016-04-12T02:24:05.066Z,6.77
2016-04-12T02:25:05.022Z,6.74
2016-04-12T02:26:04.977Z,6.84
2016-04-12T02:27:04.902Z,6.84
2016-04-12T02:28:04.857Z,6.95
2016-04-12T02:29:04.782Z,7
2016-04-12T02:30:04.754Z,7.03
2016-04-12T02:31:04.709Z,7.07
2016-04-12T02:32:04.384Z,7.03
2016-04-12T02:33:04.574Z,7.05
2016-04-12T02:34:04.515Z,7.05
2016-04-12T02:35:04.486Z,7.02
2016-04-12T02:36:04.427Z,7.03
2016-04-12T02:37:04.382Z,7.02
2016-04-12T02:38:04.307Z,7.13
2016-04-12T02:39:04.262Z,7.15
2016-04-12T02:40:04.202Z,7.17
2016-04-12T02:41:04.159Z,7.18
2016-04-12T02:42:04.114Z,7.11
2016-04-12T02:43:04.054Z,7.14
2016-04-12T02:44:03.995Z,7.11
2016-04-12T02:45:03.935Z,7.07
2016-04-12T02:46:03.890Z,7.17
2016-04-12T02:47:03.862Z,7.18
2016-04-12T02:48:03.770Z,7.15
2016-04-12T02:49:03.711Z,7.18
2016-04-12T02:50:03.667Z,7.15
2016-04-12T02:51:03.622Z,7.13
2016-04-12T02:52:03.953Z,7.07
2016-04-12T02:53:03.503Z,7.24
2016-04-12T02:54:03.443Z,7.2
2016-04-12T02:55:03.399Z,7.17
2016-04-12T02:56:03.324Z,7.29
2016-04-12T02:57:03.294Z,7.38
2016-04-12T02:58:03.219Z,7.32
2016-04-12T02:59:03.159Z,7.2
2016-04-12T03:00:03.146Z,7.18
2016-04-12T03:01:03.055Z,7.18
2016-04-12T03:02:03.011Z,7.2
2016-04-12T03:03:02.951Z,7.21
2016-04-12T03:04:02.891Z,7.23
2016-04-12T03:05:02.848Z,7.18
2016-04-12T03:06:02.787Z,7.28
2016-04-12T03:07:02.743Z,7.39
2016-04-12T03:08:02.699Z,7.29
2016-04-12T03:09:02.623Z,7.35
2016-04-12T03:10:02.595Z,7.29
2016-04-12T03:11:02.520Z,7.42
2016-04-12T03:12:02.460Z,7.4
2016-04-12T03:13:02.432Z,7.39
2016-04-12T03:14:02.356Z,7.36
2016-04-12T03:15:02.312Z,7.45
2016-04-12T03:16:02.267Z,7.54
2016-04-12T03:17:02.208Z,7.61
2016-04-12T03:18:02.148Z,7.5
2016-04-12T03:19:02.088Z,7.57
2016-04-12T03:20:02.029Z,7.58
2016-04-12T03:21:01.985Z,7.57
2016-04-12T03:22:01.925Z,7.54
2016-04-12T03:23:01.850Z,7.6
2016-04-12T03:24:01.805Z,7.61
2016-04-12T03:25:01.761Z,7.63
2016-04-12T03:26:01.701Z,7.72
2016-04-12T03:27:01.657Z,7.75
2016-04-12T03:28:01.597Z,7.58
2016-04-12T03:29:01.552Z,7.54
2016-04-12T03:30:01.477Z,7.56
2016-04-12T03:31:01.433Z,7.6
2016-04-12T03:32:01.388Z,7.57
2016-04-12T03:33:01.344Z,7.58
2016-04-12T03:34:01.269Z,7.57
2016-04-12T03:35:01.210Z,7.61
2016-04-12T03:36:01.181Z,7.7
2016-04-12T03:37:01.105Z,7.7
2016-04-12T03:38:01.046Z,7.82
2016-04-12T03:39:01.018Z,7.83
2016-04-12T03:40:00.943Z,7.83
2016-04-12T03:41:00.913Z,7.77
2016-04-12T03:42:00.838Z,7.82
2016-04-12T03:43:00.793Z,7.77
2016-04-12T03:44:00.734Z,7.69
2016-04-12T03:45:00.690Z,7.77
2016-04-12T03:46:00.614Z,7.8
2016-04-12T03:47:00.586Z,7.9
2016-04-12T03:48:00.509Z,7.82
2016-04-12T03:49:00.466Z,7.75
2016-04-12T03:50:00.406Z,7.8
2016-04-12T03:51:00.361Z,7.79
2016-04-12T03:52:00.302Z,7.79
2016-04-12T03:53:00.258Z,7.82
2016-04-12T03:54:00.198Z,7.79
2016-04-12T03:55:00.139Z,7.91
2016-04-12T03:56:00.078Z,7.87
2016-04-12T03:57:00.050Z,7.91
2016-04-12T03:57:59.833Z,7.9
2016-04-12T03:58:59.915Z,7.87
2016-04-12T03:59:59.871Z,7.91
2016-04-12T04:00:59.811Z,7.88
2016-04-12T04:01:59.766Z,8
2016-04-12T04:02:59.535Z,8
2016-04-12T04:03:59.647Z,8.09
2016-04-12T04:04:59.603Z,8.08
2016-04-12T04:05:59.543Z,8.12
2016-04-12T04:06:59.498Z,7.94
2016-04-12T04:07:59.454Z,7.97
2016-04-12T04:08:59.380Z,7.97
2016-04-12T04:09:59.335Z,8.01
2016-04-12T04:10:59.276Z,8
2016-04-12T04:11:59.231Z,7.9
2016-04-12T04:12:59.171Z,7.93
2016-04-12T04:13:59.112Z,7.98
2016-04-12T04:14:59.098Z,8.09
2016-04-12T04:15:58.257Z,8.1
2016-04-12T04:16:58.947Z,8.06
2016-04-12T04:17:58.904Z,8.09
2016-04-12T04:18:58.843Z,8.1
2016-04-12T04:19:58.815Z,8.05
2016-04-12T04:20:58.739Z,8.15
2016-04-12T04:21:58.680Z,8.19
2016-04-12T04:22:58.636Z,8.19
2016-04-12T04:23:58.591Z,8.27
2016-04-12T04:24:58.516Z,8.27
2016-04-12T04:25:58.487Z,8.34
2016-04-12T04:26:58.412Z,8.28
2016-04-12T04:27:58.367Z,8.37
2016-04-12T04:28:58.324Z,8.28
2016-04-12T04:29:58.248Z,8.28
2016-04-12T04:30:58.219Z,8.3
2016-04-12T04:31:58.144Z,8.28
2016-04-12T04:32:58.100Z,8.18
2016-04-12T04:33:58.040Z,8.2
2016-04-12T04:34:57.980Z,8.23
2016-04-12T04:35:57.935Z,8.3
2016-04-12T04:36:57.892Z,8.19
2016-04-12T04:37:57.848Z,8.3
2016-04-12T04:38:57.772Z,8.28
2016-04-12T04:39:57.713Z,8.33
2016-04-12T04:40:57.668Z,8.31
2016-04-12T04:41:57.609Z,8.31
2016-04-12T04:42:57.549Z,8.3
2016-04-12T04:43:57.504Z,8.28
2016-04-12T04:44:57.445Z,8.26
2016-04-12T04:45:57.401Z,8.28
2016-04-12T04:46:57.184Z,8.31
2016-04-12T04:47:57.296Z,8.38
2016-04-12T04:48:57.268Z,8.41
2016-04-12T04:49:57.177Z,8.53
2016-04-12T04:50:57.148Z,8.58
2016-04-12T04:51:57.089Z,8.53
2016-04-12T04:52:57.028Z,8.52
2016-04-12T04:53:56.970Z,8.45
2016-04-12T04:54:56.925Z,8.51
2016-04-12T04:55:56.865Z,8.56
2016-04-12T04:56:56.820Z,8.53
2016-04-12T04:57:56.760Z,8.6
2016-04-12T04:58:56.717Z,8.53
2016-04-12T04:59:56.672Z,8.46
2016-04-12T05:00:56.613Z,8.49
2016-04-12T05:01:56.553Z,8.52
2016-04-12T05:02:56.493Z,8.55
2016-04-12T05:03:56.449Z,8.49
2016-04-12T05:04:56.389Z,8.58
2016-04-12T05:05:56.330Z,8.53
2016-04-12T05:06:56.285Z,8.48
2016-04-12T05:07:56.210Z,8.55
2016-04-12T05:08:56.166Z,8.51
2016-04-12T05:09:56.122Z,8.53
2016-04-12T05:10:56.056Z,8.7
2016-04-12T05:11:56.026Z,8.66
2016-04-12T05:12:55.984Z,8.78
2016-04-12T05:13:55.907Z,8.74
2016-04-12T05:14:55.878Z,8.79
2016-04-12T05:15:55.804Z,8.78
2016-04-12T05:16:55.744Z,8.89
2016-04-12T05:17:55.684Z,8.87
2016-04-12T05:18:55.639Z,8.88
2016-04-12T05:19:55.580Z,8.88
2016-04-12T05:20:55.583Z,8.88
2016-04-12T05:21:55.491Z,8.88
2016-04-12T05:22:55.431Z,8.82
2016-04-12T05:23:55.388Z,8.87
2016-04-12T05:24:55.328Z,8.84
2016-04-12T05:25:55.253Z,8.97
2016-04-12T05:26:55.208Z,8.85
2016-04-12T05:27:55.164Z,8.97
2016-04-12T05:28:55.104Z,9
2016-04-12T05:29:55.044Z,9.1
2016-04-12T05:30:54.985Z,8.99
2016-04-12T05:31:54.955Z,9.11
2016-04-12T05:32:55.083Z,9.18
2016-04-12T05:33:54.835Z,9.21
2016-04-12T05:34:54.777Z,9.14
2016-04-12T05:35:54.732Z,9.03
2016-04-12T05:36:54.672Z,9.11
2016-04-12T05:37:54.629Z,9.23
2016-04-12T05:38:54.568Z,9.21
2016-04-12T05:39:54.524Z,9.21
2016-04-12T05:40:54.480Z,9.22
2016-04-12T05:41:54.404Z,9.28
2016-04-12T05:42:54.360Z,9.29
2016-04-12T05:43:54.300Z,9.28
2016-04-12T05:44:54.273Z,9.28
2016-04-12T05:45:54.197Z,9.29
2016-04-12T05:46:54.168Z,9.29
2016-04-12T05:47:54.061Z,9.31
2016-04-12T05:48:54.048Z,9.37
2016-04-12T05:49:53.989Z,9.4
2016-04-12T05:50:53.913Z,9.34
2016-04-12T05:51:53.884Z,9.44
2016-04-12T05:52:53.856Z,9.46
2016-04-12T05:53:53.765Z,9.41
2016-04-12T05:54:53.721Z,9.48
2016-04-12T05:55:53.677Z,9.55
2016-04-12T05:56:53.617Z,9.55
2016-04-12T05:57:53.572Z,9.56
2016-04-12T05:58:53.544Z,9.58
2016-04-12T05:59:53.469Z,9.55
2016-04-12T06:00:53.393Z,9.56
2016-04-12T06:01:52.615Z,9.56
2016-04-12T06:02:53.524Z,9.58
2016-04-12T06:03:53.246Z,9.55
2016-04-12T06:04:53.185Z,9.61
2016-04-12T06:05:53.140Z,9.5
2016-04-12T06:06:53.082Z,9.58
2016-04-12T06:07:53.021Z,9.59
2016-04-12T06:08:52.977Z,9.66
2016-04-12T06:09:52.933Z,9.69
2016-04-12T06:10:52.889Z,9.73
2016-04-12T06:11:52.813Z,9.8
2016-04-12T06:12:52.769Z,9.84
2016-04-12T06:13:52.709Z,9.83
2016-04-12T06:14:52.665Z,9.91
2016-04-12T06:15:52.621Z,9.87
2016-04-12T06:16:52.576Z,9.92
2016-04-12T06:17:52.392Z,9.97
2016-04-12T06:18:52.457Z,9.97
2016-04-12T06:19:52.397Z,9.91
2016-04-12T06:20:52.353Z,9.99
2016-04-12T06:21:52.325Z,10.09
2016-04-12T06:22:52.234Z,10.09
2016-04-12T06:23:52.189Z,10.15
2016-04-12T06:24:52.145Z,10.2
2016-04-12T06:25:52.070Z,10.17
2016-04-12T06:26:52.041Z,10.33
2016-04-12T06:27:51.980Z,10.22
2016-04-12T06:28:51.922Z,10.33
2016-04-12T06:29:51.877Z,10.33
2016-04-12T06:30:51.833Z,10.3
2016-04-12T06:31:51.789Z,10.28
2016-04-12T06:32:51.823Z,10.33
2016-04-12T06:33:51.669Z,10.23
2016-04-12T06:34:51.625Z,10.23
2016-04-12T06:35:51.550Z,10.23
2016-04-12T06:36:51.505Z,10.1
2016-04-12T06:37:51.462Z,10.1
2016-04-12T06:38:51.386Z,10.05
2016-04-12T06:39:51.343Z,10.04
2016-04-12T06:40:51.282Z,10.01
2016-04-12T06:41:51.237Z,9.99
2016-04-12T06:42:51.193Z,10.04
2016-04-12T06:43:51.149Z,10.04
2016-04-12T06:44:51.074Z,9.99
2016-04-12T06:45:51.029Z,9.99
2016-04-12T06:46:50.970Z,9.98
2016-04-12T06:47:50.942Z,9.95
2016-04-12T06:48:50.881Z,9.82
2016-04-12T06:49:50.822Z,9.94
2016-04-12T06:50:50.762Z,9.89
2016-04-12T06:51:50.703Z,9.89
2016-04-12T06:52:50.658Z,9.87
2016-04-12T06:53:50.598Z,9.72
2016-04-12T06:54:50.554Z,9.8
2016-04-12T06:55:50.495Z,9.82
2016-04-12T06:56:50.434Z,9.77
2016-04-12T06:57:50.391Z,9.79
2016-04-12T06:58:50.330Z,9.8
2016-04-12T06:59:50.286Z,9.69
2016-04-12T07:00:50.226Z,9.8
2016-04-12T07:01:50.182Z,9.8
2016-04-12T07:02:50.122Z,9.8
2016-04-12T07:03:50.469Z,9.82
2016-04-12T07:04:50.002Z,9.8
2016-04-12T07:05:49.943Z,9.77
2016-04-12T07:06:49.899Z,9.76
2016-04-12T07:07:49.854Z,9.68
2016-04-12T07:08:49.795Z,9.69
2016-04-12T07:09:49.766Z,9.68
2016-04-12T07:10:49.706Z,9.68
2016-04-12T07:11:49.646Z,9.68
2016-04-12T07:12:49.602Z,9.68
2016-04-12T07:13:49.543Z,9.77
2016-04-12T07:14:49.498Z,9.72
2016-04-12T07:15:49.423Z,9.69
2016-04-12T07:16:49.395Z,9.8
2016-04-12T07:17:49.334Z,9.8
2016-04-12T07:18:49.275Z,9.73
2016-04-12T07:19:49.371Z,9.68
2016-04-12T07:20:49.171Z,9.66
2016-04-12T07:21:49.111Z,9.73
2016-04-12T07:22:49.083Z,9.66
2016-04-12T07:23:49.006Z,9.73
2016-04-12T07:24:48.947Z,9.66
2016-04-12T07:25:49.075Z,9.66
2016-04-12T07:26:49.094Z,9.73
2016-04-12T07:27:48.986Z,9.8
2016-04-12T07:28:48.942Z,9.73
2016-04-12T07:29:48.930Z,9.72
2016-04-12T07:30:48.885Z,9.77
2016-04-12T07:31:48.732Z,9.73
2016-04-12T07:32:48.719Z,9.73
2016-04-12T07:33:48.659Z,9.74
2016-04-12T07:34:48.411Z,9.73
2016-04-12T07:35:48.382Z,9.79
2016-04-12T07:36:48.308Z,9.77
2016-04-12T07:37:48.263Z,9.89
2016-04-12T07:38:48.219Z,9.8
2016-04-12T07:39:48.175Z,9.74
2016-04-12T07:40:48.099Z,9.68
2016-04-12T07:41:47.887Z,9.76
2016-04-12T07:42:47.922Z,9.77
2016-04-12T07:43:48.035Z,9.82
2016-04-12T07:44:48.039Z,9.72
2016-04-12T07:45:48.028Z,9.76
2016-04-12T07:46:48.029Z,9.82
2016-04-12T07:47:48.018Z,9.77
2016-04-12T07:48:47.959Z,9.72
2016-04-12T07:49:47.949Z,9.82
2016-04-12T07:50:47.890Z,9.73
2016-04-12T07:51:47.847Z,9.87
2016-04-12T07:52:47.809Z,9.94
2016-04-12T07:53:47.770Z,9.98
2016-04-12T07:54:47.717Z,9.94
2016-04-12T07:55:47.679Z,9.99
2016-04-12T07:56:47.641Z,10.07
2016-04-12T07:57:47.583Z,10.1
2016-04-12T07:58:47.510Z,10.13
2016-04-12T07:59:47.484Z,10.15
2016-04-12T08:00:47.441Z,10.07
2016-04-12T08:01:47.384Z,9.99
2016-04-12T08:02:47.356Z,10.15
2016-04-12T08:03:47.267Z,10.16
2016-04-12T08:04:47.207Z,10.15
2016-04-12T08:05:47.163Z,10.22
2016-04-12T08:06:47.120Z,10.28
2016-04-12T08:07:47.061Z,10.44
2016-04-12T08:08:47.006Z,10.6
2016-04-12T08:09:46.805Z,10.64
2016-04-12T08:10:46.762Z,10.72
2016-04-12T08:11:46.843Z,10.69
2016-04-12T08:12:46.783Z,10.75
2016-04-12T08:13:46.744Z,10.75
2016-04-12T08:14:46.684Z,10.79
2016-04-12T08:15:46.641Z,10.72
2016-04-12T08:16:46.581Z,10.69
2016-04-12T08:17:46.536Z,10.78
2016-04-12T08:18:46.476Z,11
2016-04-12T08:19:46.464Z,11.17
2016-04-12T08:20:46.388Z,11.3
2016-04-12T08:21:46.328Z,11.37
2016-04-12T08:22:46.284Z,11.41
2016-04-12T08:23:46.225Z,11.37
2016-04-12T08:24:46.180Z,11.32
2016-04-12T08:25:46.276Z,11.26
2016-04-12T08:26:46.076Z,11.22
2016-04-12T08:27:46.001Z,11.08
2016-04-12T08:28:45.957Z,11.08
2016-04-12T08:29:45.913Z,11.11
2016-04-12T08:30:45.868Z,11.14
2016-04-12T08:31:45.902Z,11.14
2016-04-12T08:32:45.748Z,10.99
2016-04-12T08:33:45.689Z,11.02
2016-04-12T08:34:45.645Z,10.92
2016-04-12T08:35:45.601Z,10.93
2016-04-12T08:36:45.525Z,10.9
2016-04-12T08:37:45.481Z,10.92
2016-04-12T08:38:45.453Z,10.94
2016-04-12T08:39:45.409Z,10.94
2016-04-12T08:40:45.348Z,10.92
2016-04-12T08:41:45.320Z,10.89
2016-04-12T08:42:45.229Z,10.84
2016-04-12T08:43:45.184Z,10.78
2016-04-12T08:44:45.140Z,10.92
2016-04-12T08:45:44.909Z,11
2016-04-12T08:46:45.036Z,10.96
2016-04-12T08:47:44.961Z,10.9
2016-04-12T08:48:44.917Z,10.86
2016-04-12T08:49:44.872Z,10.86
2016-04-12T08:50:44.828Z,10.89
2016-04-12T08:51:44.753Z,10.99
2016-04-12T08:52:44.693Z,10.86
2016-04-12T08:53:44.649Z,10.94
2016-04-12T08:54:44.605Z,10.84
2016-04-12T08:55:44.545Z,10.97
2016-04-12T08:56:44.501Z,10.93
2016-04-12T08:57:44.457Z,10.86
2016-04-12T08:58:44.413Z,10.9
2016-04-12T08:59:44.337Z,11
2016-04-12T09:00:44.277Z,10.97
2016-04-12T09:01:44.233Z,11
2016-04-12T09:02:44.173Z,11.05
2016-04-12T09:03:44.129Z,10.97
2016-04-12T09:04:44.068Z,11.02
2016-04-12T09:05:44.056Z,11
2016-04-12T09:06:43.981Z,10.97
2016-04-12T09:07:43.921Z,11.02
2016-04-12T09:08:43.861Z,11.04
2016-04-12T09:09:43.806Z,10.99
2016-04-12T09:10:43.762Z,10.96
2016-04-12T09:11:43.703Z,11.02
2016-04-12T09:12:43.658Z,11.1
2016-04-12T09:13:43.614Z,11.02
2016-04-12T09:14:43.538Z,11.04
2016-04-12T09:15:43.510Z,11.14
2016-04-12T09:16:43.450Z,11.1
2016-04-12T09:17:43.391Z,11.07
2016-04-12T09:18:43.377Z,11.18
2016-04-12T09:19:43.299Z,11.18
2016-04-12T09:20:43.239Z,11.11
2016-04-12T09:21:43.194Z,11.1
2016-04-12T09:22:43.151Z,11.1
2016-04-12T09:23:43.075Z,11.05
2016-04-12T09:24:43.032Z,11.07
2016-04-12T09:25:42.971Z,11.11
2016-04-12T09:26:42.927Z,11.12
2016-04-12T09:27:42.883Z,11.19
2016-04-12T09:28:42.854Z,11.32
2016-04-12T09:29:42.763Z,11.3
2016-04-12T09:30:42.719Z,11.22
2016-04-12T09:31:42.676Z,11.1
2016-04-12T09:32:42.615Z,11.1
2016-04-12T09:33:42.618Z,11.11
2016-04-12T09:34:42.512Z,11.17
2016-04-12T09:35:42.468Z,11.22
2016-04-12T09:36:42.423Z,11.25
2016-04-12T09:37:42.379Z,11.26
2016-04-12T09:38:42.303Z,11.17
2016-04-12T09:39:42.259Z,11.23
2016-04-12T09:40:42.231Z,11.32
2016-04-12T09:41:42.140Z,11.4
2016-04-12T09:42:42.095Z,11.52
2016-04-12T09:43:42.051Z,11.41
2016-04-12T09:44:42.272Z,11.44
2016-04-12T09:45:41.947Z,11.52
2016-04-12T09:46:41.887Z,11.55
2016-04-12T09:47:41.844Z,11.63
2016-04-12T09:48:41.955Z,11.66
2016-04-12T09:49:41.755Z,11.75
2016-04-12T09:50:41.680Z,11.87
2016-04-12T09:51:41.635Z,11.94
2016-04-12T09:52:41.606Z,12.17
2016-04-12T09:53:41.530Z,12.39
2016-04-12T09:54:41.488Z,12.54
2016-04-12T09:55:41.427Z,12.79
2016-04-12T09:56:41.414Z,12.87
2016-04-12T09:57:41.338Z,13
2016-04-12T09:58:41.341Z,13.16
2016-04-12T09:59:41.219Z,13.19
2016-04-12T10:00:41.191Z,13.19
2016-04-12T10:01:41.147Z,13.2
2016-04-12T10:02:41.102Z,13.25
2016-04-12T10:03:40.886Z,13.5
2016-04-12T10:04:40.967Z,13.97
2016-04-12T10:05:40.907Z,13.72
2016-04-12T10:06:40.894Z,13.9
2016-04-12T10:07:40.882Z,14.28
2016-04-12T10:08:40.790Z,14.48
2016-04-12T10:09:40.715Z,14.78
2016-04-12T10:10:40.686Z,14.94
2016-04-12T10:11:40.626Z,15.29
2016-04-12T10:12:40.582Z,15.33
2016-04-12T10:13:40.522Z,15.44
2016-04-12T10:14:40.478Z,15.7
2016-04-12T10:15:40.433Z,15.9
2016-04-12T10:16:40.375Z,15.75
2016-04-12T10:17:40.314Z,15.68
2016-04-12T10:18:40.270Z,15.49
2016-04-12T10:19:40.225Z,15.72
2016-04-12T10:20:40.166Z,15.51
2016-04-12T10:21:40.122Z,15.39
2016-04-12T10:22:40.094Z,15.51
2016-04-12T10:23:40.034Z,15.36
2016-04-12T10:24:39.989Z,15.28
2016-04-12T10:25:39.960Z,15.24
2016-04-12T10:26:39.760Z,15.42
2016-04-12T10:27:39.810Z,15.73
2016-04-12T10:28:39.782Z,15.95
2016-04-12T10:29:39.737Z,16.08
2016-04-12T10:30:39.693Z,16.1
2016-04-12T10:31:39.633Z,15.8
2016-04-12T10:32:39.573Z,16.02
2016-04-12T10:33:39.623Z,16.09
2016-04-12T10:34:39.516Z,16.33
2016-04-12T10:35:39.300Z,15.91
2016-04-12T10:36:39.397Z,16.08
2016-04-12T10:37:39.384Z,16.12
2016-04-12T10:38:39.277Z,16.32
2016-04-12T10:39:39.233Z,16.43
2016-04-12T10:40:39.189Z,16.81
2016-04-12T10:41:39.144Z,16.79
2016-04-12T10:42:39.084Z,16.17
2016-04-12T10:43:39.041Z,16.47
2016-04-12T10:44:39.028Z,15.98
2016-04-12T10:45:38.937Z,16.35
2016-04-12T10:46:39.345Z,16.69
2016-04-12T10:47:38.848Z,16.91
2016-04-12T10:48:38.804Z,17.04
2016-04-12T10:49:38.745Z,17.06
2016-04-12T10:50:38.700Z,17.22
2016-04-12T10:51:38.640Z,17.01
2016-04-12T10:52:38.597Z,17.02
2016-04-12T10:53:38.567Z,17.08
2016-04-12T10:54:38.508Z,16.65
2016-04-12T10:55:38.448Z,16.79
2016-04-12T10:56:38.404Z,16.87
2016-04-12T10:57:38.360Z,16.99
2016-04-12T10:58:38.315Z,17.01
2016-04-12T10:59:38.255Z,17.36
2016-04-12T11:00:38.211Z,17.38
2016-04-12T11:01:38.151Z,17.41
2016-04-12T11:02:38.123Z,17.42
2016-04-12T11:03:38.094Z,17.7
2016-04-12T11:04:38.065Z,17.89
2016-04-12T11:05:37.974Z,17.08
2016-04-12T11:06:37.915Z,17.02
2016-04-12T11:07:37.870Z,17.29
2016-04-12T11:08:37.842Z,17.57
2016-04-12T11:09:37.768Z,17.23
2016-04-12T11:10:37.723Z,17.41
2016-04-12T11:11:37.694Z,17.54
2016-04-12T11:12:37.634Z,17.59
2016-04-12T11:13:37.574Z,17.6
2016-04-12T11:14:37.546Z,17.67
2016-04-12T11:15:37.501Z,17.64
2016-04-12T11:16:37.442Z,17.89
2016-04-12T11:17:37.381Z,17.95
2016-04-12T11:18:37.338Z,18.03
2016-04-12T11:19:37.294Z,18.11
2016-04-12T11:20:37.233Z,18.19
2016-04-12T11:21:37.221Z,18.22
2016-04-12T11:22:37.145Z,18.19
2016-04-12T11:23:37.102Z,18.33
2016-04-12T11:24:37.073Z,18.4
2016-04-12T11:25:36.997Z,18.43
2016-04-12T11:26:36.969Z,18.52
2016-04-12T11:27:36.908Z,18.56
2016-04-12T11:28:36.880Z,18.59
2016-04-12T11:29:36.805Z,18.6
2016-04-12T11:30:36.777Z,18.8
2016-04-12T11:31:36.733Z,18.71
2016-04-12T11:32:36.671Z,18.55
2016-04-12T11:33:36.629Z,18.35
2016-04-12T11:34:36.569Z,18.22
2016-04-12T11:35:36.540Z,18.18
2016-04-12T11:36:36.465Z,18.18
2016-04-12T11:37:36.435Z,18.37
2016-04-12T11:38:36.392Z,18.53
2016-04-12T11:39:36.331Z,18.1
2016-04-12T11:40:36.287Z,18.15
2016-04-12T11:41:36.243Z,18.41
2016-04-12T11:42:36.183Z,18.28
2016-04-12T11:43:36.123Z,18.44
2016-04-12T11:44:36.112Z,18.29
2016-04-12T11:45:36.051Z,18.45
2016-04-12T11:46:35.991Z,18.37
2016-04-12T11:47:35.947Z,18.58
2016-04-12T11:48:35.919Z,18.66
2016-04-12T11:49:35.859Z,18.68
2016-04-12T11:50:35.799Z,18.63
2016-04-12T11:51:35.755Z,18.78
2016-04-12T11:52:35.694Z,18.74
2016-04-12T11:53:35.650Z,18.95
2016-04-12T11:54:35.606Z,18.86
2016-04-12T11:55:35.563Z,18.95
2016-04-12T11:56:35.361Z,18.56
2016-04-12T11:57:35.458Z,18.86
2016-04-12T11:58:35.414Z,18.99
2016-04-12T11:59:35.355Z,19.14
2016-04-12T12:00:35.311Z,18.95
2016-04-12T12:01:35.266Z,19.26
2016-04-12T12:02:35.222Z,19.27
2016-04-12T12:03:35.177Z,19.31
2016-04-12T12:04:35.133Z,19.26
2016-04-12T12:05:35.090Z,19.34
2016-04-12T12:06:35.045Z,18.99
2016-04-12T12:07:34.985Z,19.27
2016-04-12T12:08:34.941Z,19.41
2016-04-12T12:09:34.912Z,19.49
2016-04-12T12:10:34.853Z,19.74
2016-04-12T12:11:34.808Z,19.66
2016-04-12T12:12:34.748Z,19.77
2016-04-12T12:13:34.705Z,19.77
2016-04-12T12:14:34.660Z,19.58
2016-04-12T12:15:34.616Z,19.88
2016-04-12T12:16:34.556Z,19.99
2016-04-12T12:17:34.590Z,19.86
2016-04-12T12:18:34.484Z,19.67
2016-04-12T12:19:34.487Z,19.95
2016-04-12T12:20:34.380Z,19.76
2016-04-12T12:21:34.336Z,19.29
2016-04-12T12:22:34.292Z,19.52
2016-04-12T12:23:34.231Z,19.73
2016-04-12T12:24:34.187Z,19.76
2016-04-12T12:25:34.175Z,19.79
2016-04-12T12:26:34.114Z,19.49
2016-04-12T12:27:34.070Z,19.77
2016-04-12T12:28:34.027Z,19.41
2016-04-12T12:29:33.982Z,19.45
2016-04-12T12:30:33.922Z,19.56
2016-04-12T12:31:33.863Z,19.7
2016-04-12T12:32:33.818Z,19.79
2016-04-12T12:33:33.774Z,19.62
2016-04-12T12:34:33.714Z,19.4
2016-04-12T12:35:33.670Z,19.63
2016-04-12T12:36:33.641Z,19.51
2016-04-12T12:37:33.582Z,19.76
2016-04-12T12:38:33.538Z,19.92
2016-04-12T12:39:33.493Z,20.03
2016-04-12T12:40:33.434Z,20
2016-04-12T12:41:33.420Z,19.92
2016-04-12T12:42:33.360Z,19.86
2016-04-12T12:43:33.332Z,19.91
2016-04-12T12:44:33.257Z,19.77
2016-04-12T12:45:33.244Z,19.74
2016-04-12T12:46:33.153Z,19.88
2016-04-12T12:47:33.108Z,19.86
2016-04-12T12:48:33.064Z,19.67
2016-04-12T12:49:33.036Z,19.29
2016-04-12T12:50:33.006Z,19.45
2016-04-12T12:51:32.964Z,19.37
2016-04-12T12:52:32.887Z,19.48
2016-04-12T12:53:32.827Z,19.54
2016-04-12T12:54:32.814Z,19.52
2016-04-12T12:55:32.755Z,19.39
2016-04-12T12:56:32.695Z,19.54
2016-04-12T12:57:32.650Z,18.93
2016-04-12T12:58:32.622Z,19.26
2016-04-12T12:59:32.563Z,19.29
2016-04-12T13:00:32.518Z,19.29
2016-04-12T13:01:32.490Z,19.39
2016-04-12T13:02:32.414Z,19
2016-04-12T13:03:32.370Z,18.93
2016-04-12T13:04:32.326Z,19.18
2016-04-12T13:05:32.266Z,19.11
2016-04-12T13:06:32.237Z,19.11
2016-04-12T13:07:32.177Z,18.88
2016-04-12T13:08:32.134Z,19.22
2016-04-12T13:09:32.092Z,19.3
2016-04-12T13:10:32.049Z,19.29